Terminal Aerodrome Forecast
Issued by NWS Louisville, KY

Home | Current Version | Previous Version | Text Only | Print | Product List | Glossary On
Versions: 1 2 3 4 5 6 7 8 9 10 11 12 13 14 15 16 17 18 19 20 21 22 23 24 25
000
FTUS43 KLMK 211130
TAFBWG
TAF
KBWG 211130Z 2112/2212 15003KT P6SM BKN250
     FM211500 18008KT P6SM BKN180
     FM212100 15005KT P6SM BKN060
     FM212300 14004KT 6SM BR VCSH OVC035
     FM220100 13003KT 5SM -SHRA BR OVC020=

USA.gov is the U.S. government's official web portal to all federal, state and local government web resources and services.